イエローナイフ の空港の天気 - METARとTAF

イエローナイフ空港 ( CYZF / YZF ) - カナダ ノースウエスト準州イエローナイフ
飛行場実況気象(Metar)
観測時間06/24 03:00 MDT (06/24 09:00 UTC)
風向・風速西北西 4m/s
視程10km以上
天気現象
少しの雲 雲底高度 2740m
少しの雲 雲底高度 4270m
全天の4割程度の雲 雲底高度 7320m
気温13℃
湿度88%
気圧1009.2hPa
METARCYZF 240900Z 29007KT 15SM FEW090 FEW140 SCT240 13/11 A2978 RMK AC1AC1CI1 SLP092 DENSITY ALT 800FT
過去の天気等 Google飛行場航空写真 Wunderground天気予報

過去48時間のMETAR

飛行場予報(TAF)
発表時間: 6/23 23:38 MDT (6/24 05:38 UTC)
予報対象時間: 24日0時 MDT ~ 25日0時 MDT
風向・風速不定 2m/s
視程10km以上
全天の4割程度の雲 雲底高度 1830m
全天の8割程度の雲 雲底高度 3660m
24日0時 MDT ~ 24日3時 MDT に一時的に
視程10km以上
天気現象弱いしゅう雨
全天の8割程度の雲 雲底高度 1830m
全天を覆う雲 雲底高度 3660m
24日3時 MDT から
風向・風速東 3m/s
視程10km以上
全天の4割程度の雲 雲底高度 610m
全天の8割程度の雲 雲底高度 2440m
24日3時 MDT ~ 24日12時 MDT に一時的に
全天の4割程度の雲 雲底高度 240m
全天の8割程度の雲 雲底高度 610m
24日12時 MDT から
風向・風速南南西 4m/s
視程10km以上
天気現象弱いしゅう雨
全天の8割程度の雲 雲底高度 1220m
24日12時 MDT から 確率 30% で
視程6440m
天気現象雷雨
全天を覆う積乱雲 雲底高度 1220m
24日20時 MDT から
風向・風速北東 3m/s
視程10km以上
全天の4割程度の雲 雲底高度 2440m
TAF CYZF 240538Z 2406/2506 VRB03KT P6SM SCT060 BKN120
TEMPO 2406/2409 P6SM -SHRA BKN060 OVC120
FM240900 08006KT P6SM SCT020 BKN080
TEMPO 2409/2418 SCT008 BKN020
FM241800 20008KT P6SM -SHRA BKN040
PROB30 2418/2502 4SM TSRA OVC040CB
FM250200 04006KT P6SM SCT080 RMK NXT FCST BY 241200Z